Aérodrome :
LOGIN :

S'inscrire | Disclaimer

   EN    FR    IT 

 










Légende :    VFR   VFR Marginal   IFR   IFR Intensif   IFR Très Intensif
Visi : 
Plafond : 
>= 8 km
>= 3000ft
5 à 8 km
1000 à 3000 ft
1500m à 5 km
500 à 1000 ft
800 à 1500m
200 à 500 ft
< 800m
< 200 ft
Symboles :   Orages  Brouillard  Fortes neiges  Fortes précipitations  Vent > 20 kt
SIGMETs :   Divers  Orages  Givrage  Turbulence  Onde Orograph.  Cendres Volcan.







- Altitude de l'aérodrome : 291 ft
- Code IATA : ORY
- Voir les cartes d'approche


LFPO - Paris-Orly

DERNIER METAR :
  • 101330Z 30014KT 9999 SCT027 BKN037 10/04 Q1027 NOSIG

METARs EXPIRÉS :
  • 101300Z 29011KT 260V320 9999 SCT026 SCT047 11/05 Q1027 NOSIG
  • 101230Z 31012KT 9999 SCT024 11/05 Q1027 NOSIG
  • 101200Z 31011KT 9999 SCT020 10/05 Q1028 NOSIG
  • 101130Z 30010KT 270V330 9999 FEW017 09/06 Q1028 NOSIG
  • 101100Z 29009KT 260V320 9999 FEW017 SCT026 09/06 Q1028 NOSIG

TAF TAF LFPO
Valide du 10 à 12h jusqu'au 11 à 18h UTC


101100Z 1012/1118 28010KT 9999 SCT030
TEMPO 1012/1015 -SHRA BKN030
BECMG 1023/1101 VRB03KT 3000 BR SCT003
TEMPO 1103/1111 1200 BCFG
PROB30
TEMPO 1104/1109 0800 FG BKN002
BECMG 1111/1113 08004KT 9999 SCT030
ATIS : +33 1 49 75 65 80
Pas de NOTAMs connus pour ce terrain.



MET'MAP, la Météo Aéronautique d'un coup d'oeil ! - Copyright ORBIFLY Décembre 2007 - Disclaimer

ORBIFLY MET'MAP TEAM :

Programmation & Développement : Alexandra Zaïnal
Conception & Développement : Baudouin d'Aumeries
Co-Programmation & Développement : Marc-Olivier Méhu
Soutien technique & logistique : Manuel Goepfert

Contact : metmap@orbifly.com




SOURCES & CREDITS :

   NOAA